createdAt,value
2018-10-05T00:02:22.493Z,12.50
2018-10-05T00:04:50.993Z,12.40
2018-10-05T00:07:19.453Z,12.40
2018-10-05T00:09:47.896Z,12.40
2018-10-05T00:12:16.341Z,12.40
2018-10-05T00:14:44.715Z,12.40
2018-10-05T00:17:13.090Z,12.30
2018-10-05T00:19:41.497Z,12.30
2018-10-05T00:22:09.905Z,12.10
2018-10-05T00:24:38.285Z,12.10
2018-10-05T00:27:06.685Z,12.10
2018-10-05T00:29:35.070Z,12.20
2018-10-05T00:32:03.481Z,12.20
2018-10-05T00:34:31.873Z,12.10
2018-10-05T00:37:00.319Z,12.00
2018-10-05T00:39:28.713Z,11.90
2018-10-05T00:41:57.107Z,12.00
2018-10-05T00:44:25.530Z,11.90
2018-10-05T00:46:53.895Z,11.90
2018-10-05T00:49:22.277Z,11.80
2018-10-05T00:51:50.668Z,11.70
2018-10-05T00:54:19.103Z,11.80
2018-10-05T00:56:47.492Z,11.70
2018-10-05T00:59:15.914Z,11.70
2018-10-05T01:01:44.355Z,11.80
2018-10-05T01:04:12.711Z,11.70
2018-10-05T01:06:41.063Z,11.60
2018-10-05T01:09:09.502Z,11.60
2018-10-05T01:11:38.183Z,11.40
2018-10-05T01:14:06.537Z,11.40
2018-10-05T01:16:34.924Z,11.30
2018-10-05T01:19:03.291Z,11.20
2018-10-05T01:21:31.742Z,11.40
2018-10-05T01:24:00.152Z,11.30
2018-10-05T01:26:28.569Z,11.30
2018-10-05T01:28:56.984Z,11.20
2018-10-05T01:31:25.384Z,11.20
2018-10-05T01:33:53.784Z,11.30
2018-10-05T01:36:22.154Z,11.30
2018-10-05T01:38:50.613Z,11.20
2018-10-05T01:41:18.934Z,11.00
2018-10-05T01:43:47.287Z,11.00
2018-10-05T01:46:15.678Z,11.10
2018-10-05T01:48:44.042Z,10.90
2018-10-05T01:51:12.431Z,10.90
2018-10-05T01:53:40.815Z,10.80
2018-10-05T01:56:09.193Z,10.80
2018-10-05T01:58:37.564Z,10.90
2018-10-05T02:01:05.976Z,10.80
2018-10-05T02:03:34.380Z,10.80
2018-10-05T02:06:02.797Z,10.80
2018-10-05T02:08:31.151Z,10.80
2018-10-05T02:10:59.524Z,10.70
2018-10-05T02:13:27.908Z,10.80
2018-10-05T02:15:56.297Z,10.90
2018-10-05T02:18:24.672Z,10.70
2018-10-05T02:20:53.045Z,10.70
2018-10-05T02:23:21.479Z,10.50
2018-10-05T02:25:49.825Z,10.60
2018-10-05T02:28:18.235Z,10.60
2018-10-05T02:30:46.625Z,10.40
2018-10-05T02:33:15.002Z,10.50
2018-10-05T02:35:43.393Z,10.30
2018-10-05T02:38:11.808Z,10.20
2018-10-05T02:40:40.203Z,10.30
2018-10-05T02:43:08.560Z,10.20
2018-10-05T02:45:36.932Z,10.10
2018-10-05T02:48:05.447Z,10.10
2018-10-05T02:50:33.911Z,9.90
2018-10-05T02:53:02.331Z,10.00
2018-10-05T02:55:30.708Z,10.10
2018-10-05T02:57:59.135Z,9.90
2018-10-05T03:00:38.601Z,9.90
2018-10-05T03:03:07.004Z,9.80
2018-10-05T03:05:35.368Z,9.80
2018-10-05T03:08:03.752Z,9.80
2018-10-05T03:10:32.160Z,9.70
2018-10-05T03:13:00.517Z,9.60
2018-10-05T03:15:28.934Z,9.70
2018-10-05T03:17:57.328Z,9.60
2018-10-05T03:20:25.702Z,9.70
2018-10-05T03:22:54.196Z,9.50
2018-10-05T03:25:22.588Z,9.70
2018-10-05T03:27:51.004Z,9.60
2018-10-05T03:30:19.377Z,9.50
2018-10-05T03:32:47.756Z,9.60
2018-10-05T03:35:16.196Z,9.50
2018-10-05T03:37:44.640Z,9.50
2018-10-05T03:40:13.030Z,9.50
2018-10-05T03:42:41.436Z,9.40
2018-10-05T03:45:09.808Z,9.50
2018-10-05T03:47:38.199Z,9.30
2018-10-05T03:50:06.684Z,9.40
2018-10-05T03:52:35.080Z,9.40
2018-10-05T03:55:03.508Z,9.40
2018-10-05T03:57:31.952Z,9.20
2018-10-05T04:00:00.326Z,9.40
2018-10-05T04:02:28.679Z,9.40
2018-10-05T04:04:57.097Z,9.30
2018-10-05T04:07:25.768Z,9.30
2018-10-05T04:09:54.190Z,9.30
2018-10-05T04:12:22.645Z,9.30
2018-10-05T04:14:51.031Z,9.20
2018-10-05T04:17:19.434Z,9.20
2018-10-05T04:19:47.831Z,9.10
2018-10-05T04:22:22.453Z,9.10
2018-10-05T04:24:50.865Z,9.20
2018-10-05T04:27:19.303Z,9.10
2018-10-05T04:29:47.675Z,9.10
2018-10-05T04:32:16.049Z,9.20
2018-10-05T04:34:44.457Z,9.10
2018-10-05T04:37:12.831Z,9.00
2018-10-05T04:39:41.267Z,9.00
2018-10-05T04:42:09.751Z,9.00
2018-10-05T04:44:38.127Z,8.90
2018-10-05T04:47:06.599Z,8.70
2018-10-05T04:49:34.979Z,8.80
2018-10-05T04:52:03.659Z,8.80
2018-10-05T04:54:32.241Z,8.80
2018-10-05T04:57:00.650Z,8.70
2018-10-05T04:59:29.098Z,8.90
2018-10-05T05:01:57.484Z,8.80
2018-10-05T05:04:25.912Z,8.90
2018-10-05T05:06:54.380Z,8.90
2018-10-05T05:09:22.788Z,8.90
2018-10-05T05:11:51.302Z,8.80
2018-10-05T05:14:19.754Z,8.90
2018-10-05T05:16:48.134Z,8.80
2018-10-05T05:19:16.562Z,8.70
2018-10-05T05:21:44.986Z,8.80
2018-10-05T05:24:13.404Z,8.70
2018-10-05T05:26:41.848Z,8.70
2018-10-05T05:29:10.224Z,8.80
2018-10-05T05:31:38.598Z,8.70
2018-10-05T05:34:07.116Z,8.90
2018-10-05T05:36:35.500Z,9.20
2018-10-05T05:39:04.887Z,9.30
2018-10-05T05:41:33.354Z,9.50
2018-10-05T05:44:01.776Z,9.60
2018-10-05T05:46:31.942Z,9.80
2018-10-05T05:49:00.468Z,9.90
2018-10-05T05:51:28.927Z,10.00
2018-10-05T05:53:57.419Z,10.00
2018-10-05T05:56:26.060Z,10.20
2018-10-05T05:58:54.475Z,10.30
2018-10-05T06:01:22.865Z,10.30
2018-10-05T06:03:51.220Z,10.50
2018-10-05T06:06:19.633Z,10.60
2018-10-05T06:08:47.974Z,11.20
2018-10-05T06:11:16.351Z,11.50
2018-10-05T06:13:44.707Z,11.80
2018-10-05T06:16:13.212Z,12.20
2018-10-05T06:18:41.508Z,12.50
2018-10-05T06:21:09.874Z,12.40
2018-10-05T06:23:38.257Z,12.70
2018-10-05T06:26:06.676Z,12.80
2018-10-05T06:28:35.049Z,13.20
2018-10-05T06:31:03.709Z,13.30
2018-10-05T06:33:31.976Z,13.30
2018-10-05T06:36:00.353Z,13.60
2018-10-05T06:38:28.973Z,13.80
2018-10-05T06:40:57.456Z,14.00
2018-10-05T06:43:25.903Z,13.90
2018-10-05T06:45:54.327Z,14.30
2018-10-05T06:48:22.843Z,14.60
2018-10-05T06:50:51.313Z,15.00
2018-10-05T06:53:19.786Z,14.90
2018-10-05T06:55:48.071Z,15.20
2018-10-05T06:58:19.426Z,15.80
2018-10-05T07:00:47.830Z,15.80
2018-10-05T07:03:16.184Z,16.10
2018-10-05T07:05:44.593Z,15.70
2018-10-05T07:08:13.061Z,16.40
2018-10-05T07:10:41.425Z,15.90
2018-10-05T07:13:09.876Z,16.10
2018-10-05T07:15:38.325Z,16.50
2018-10-05T07:18:06.775Z,17.10
2018-10-05T07:20:35.175Z,17.40
2018-10-05T07:23:03.596Z,17.50
2018-10-05T07:25:31.937Z,17.80
2018-10-05T07:28:00.303Z,16.90
2018-10-05T07:30:28.687Z,17.30
2018-10-05T07:32:57.148Z,17.90
2018-10-05T07:35:25.482Z,18.90
2018-10-05T07:37:53.900Z,19.10
2018-10-05T07:40:22.443Z,18.80
2018-10-05T07:42:50.873Z,20.20
2018-10-05T07:45:19.508Z,19.20
2018-10-05T07:47:47.940Z,19.00
2018-10-05T07:50:16.308Z,19.30
2018-10-05T07:52:44.658Z,19.60
2018-10-05T07:55:13.168Z,19.10
2018-10-05T07:57:41.921Z,18.70
2018-10-05T08:00:10.304Z,18.70
2018-10-05T08:02:38.718Z,19.00
2018-10-05T08:05:07.120Z,18.40
2018-10-05T08:07:35.547Z,19.30
2018-10-05T08:10:04.038Z,19.20
2018-10-05T08:12:32.497Z,19.80
2018-10-05T08:15:00.956Z,19.50
2018-10-05T08:17:29.331Z,19.10
2018-10-05T08:19:57.813Z,19.50
2018-10-05T08:22:26.218Z,19.10
2018-10-05T08:24:54.615Z,20.00
2018-10-05T08:27:23.204Z,20.40
2018-10-05T08:29:51.571Z,20.60
2018-10-05T08:32:19.943Z,20.10
2018-10-05T08:34:48.332Z,20.00
2018-10-05T08:37:16.725Z,21.00
2018-10-05T08:39:45.112Z,21.90
2018-10-05T08:42:13.459Z,20.30
2018-10-05T08:44:41.879Z,20.70
2018-10-05T08:47:10.294Z,22.30
2018-10-05T08:49:38.675Z,22.00
2018-10-05T08:52:07.237Z,22.10
2018-10-05T08:54:35.624Z,21.00
2018-10-05T08:57:04.011Z,20.70
2018-10-05T08:59:32.399Z,21.50
2018-10-05T09:02:00.824Z,22.10
2018-10-05T09:04:29.251Z,21.90
2018-10-05T09:06:57.621Z,23.20
2018-10-05T09:09:25.941Z,22.90
2018-10-05T09:11:54.434Z,22.20
2018-10-05T09:14:22.824Z,23.10
2018-10-05T09:16:51.207Z,24.30
2018-10-05T09:19:19.575Z,23.10
2018-10-05T09:21:47.947Z,22.80
2018-10-05T09:24:16.419Z,23.40
2018-10-05T09:26:44.777Z,23.80
2018-10-05T09:29:13.178Z,22.80
2018-10-05T09:31:41.603Z,23.10
2018-10-05T09:34:10.075Z,24.00
2018-10-05T09:36:38.477Z,23.70
2018-10-05T09:39:07.667Z,22.60
2018-10-05T09:41:36.776Z,23.20
2018-10-05T09:44:05.191Z,23.70
2018-10-05T09:46:33.622Z,23.90
2018-10-05T09:49:02.100Z,24.20
2018-10-05T09:51:30.470Z,23.40
2018-10-05T09:53:58.916Z,23.90
2018-10-05T09:56:27.367Z,24.70
2018-10-05T09:58:55.772Z,24.40
2018-10-05T10:01:29.390Z,24.40
2018-10-05T10:03:57.760Z,24.30
2018-10-05T10:06:26.156Z,24.50
2018-10-05T10:08:54.552Z,24.40
2018-10-05T10:11:22.934Z,24.30
2018-10-05T10:13:51.359Z,24.00
2018-10-05T10:16:19.738Z,23.90
2018-10-05T10:18:48.099Z,23.60
2018-10-05T10:21:16.576Z,25.10
2018-10-05T10:23:45.007Z,24.30
2018-10-05T10:26:13.390Z,25.50
2018-10-05T10:28:41.960Z,24.60
2018-10-05T10:31:10.198Z,23.40
2018-10-05T10:33:38.609Z,24.40
2018-10-05T10:36:06.965Z,24.00
2018-10-05T10:38:35.329Z,24.10
2018-10-05T10:41:03.746Z,24.40
2018-10-05T10:43:32.140Z,24.90
2018-10-05T10:46:00.572Z,25.70
2018-10-05T10:48:28.992Z,26.00
2018-10-05T10:50:57.362Z,25.60
2018-10-05T10:53:25.787Z,25.80
2018-10-05T10:55:54.170Z,25.60
2018-10-05T10:58:22.675Z,24.50
2018-10-05T11:00:51.277Z,25.30
2018-10-05T11:03:19.649Z,25.80
2018-10-05T11:05:48.048Z,24.50
2018-10-05T11:08:16.690Z,25.00
2018-10-05T11:10:45.100Z,26.90
2018-10-05T11:13:13.507Z,24.80
2018-10-05T11:15:41.940Z,24.80
2018-10-05T11:18:10.320Z,25.30
2018-10-05T11:20:38.689Z,26.50
2018-10-05T11:23:07.085Z,26.30
2018-10-05T11:25:35.514Z,27.70
2018-10-05T11:28:03.900Z,27.00
2018-10-05T11:30:32.269Z,25.90
2018-10-05T11:33:00.630Z,25.70
2018-10-05T11:35:29.080Z,26.80
2018-10-05T11:37:57.490Z,27.60
2018-10-05T11:40:25.915Z,25.30
2018-10-05T11:42:54.390Z,24.80
2018-10-05T11:45:22.812Z,24.50
2018-10-05T11:47:51.225Z,24.60
2018-10-05T11:50:19.604Z,24.20
2018-10-05T11:52:48.053Z,25.00
2018-10-05T11:55:16.432Z,25.20
2018-10-05T11:57:44.831Z,25.20
2018-10-05T12:00:16.507Z,26.10
2018-10-05T12:02:44.971Z,25.30
2018-10-05T12:05:13.425Z,25.00
2018-10-05T12:07:42.277Z,25.30
2018-10-05T12:10:10.727Z,25.70
2018-10-05T12:12:39.227Z,25.30
2018-10-05T12:15:07.903Z,25.20
2018-10-05T12:17:36.365Z,24.70
2018-10-05T12:20:04.913Z,25.50
2018-10-05T12:22:33.275Z,25.10
2018-10-05T12:25:01.681Z,26.00
2018-10-05T12:27:30.177Z,25.20
2018-10-05T12:29:58.628Z,24.40
2018-10-05T12:32:27.015Z,25.40
2018-10-05T12:34:55.502Z,26.90
2018-10-05T12:37:24.232Z,26.20
2018-10-05T12:39:52.635Z,25.30
2018-10-05T12:42:21.083Z,25.50
2018-10-05T12:44:49.479Z,25.20
2018-10-05T12:47:17.860Z,26.50
2018-10-05T12:49:46.227Z,24.50
2018-10-05T12:52:14.633Z,24.30
2018-10-05T12:54:43.050Z,25.60
2018-10-05T12:57:11.456Z,24.20
2018-10-05T12:59:39.851Z,23.60
2018-10-05T13:02:08.420Z,24.00
2018-10-05T13:04:36.801Z,23.30
2018-10-05T13:07:05.255Z,24.00
2018-10-05T13:09:33.645Z,23.60
2018-10-05T13:12:02.093Z,24.40
2018-10-05T13:14:30.749Z,25.10
2018-10-05T13:16:59.156Z,23.70
2018-10-05T13:19:27.491Z,23.60
2018-10-05T13:21:55.868Z,23.80
2018-10-05T13:24:24.745Z,24.00
2018-10-05T13:26:53.348Z,24.00
2018-10-05T13:29:21.785Z,24.00
2018-10-05T13:31:50.626Z,23.00
2018-10-05T13:34:19.080Z,22.90
2018-10-05T13:36:47.641Z,23.30
2018-10-05T13:39:16.053Z,23.00
2018-10-05T13:41:44.528Z,23.40
2018-10-05T13:44:13.026Z,23.20
2018-10-05T13:46:41.396Z,23.20
2018-10-05T13:49:09.828Z,23.10
2018-10-05T13:51:38.206Z,23.10
2018-10-05T13:54:07.078Z,23.70
2018-10-05T13:56:35.832Z,23.20
2018-10-05T13:59:04.836Z,23.10
2018-10-05T14:01:33.208Z,22.70
2018-10-05T14:04:01.620Z,22.70
2018-10-05T14:06:30.111Z,22.70
2018-10-05T14:08:58.504Z,22.50
2018-10-05T14:11:26.848Z,22.70
2018-10-05T14:13:55.244Z,23.30
2018-10-05T14:16:23.720Z,23.00
2018-10-05T14:18:52.143Z,22.60
2018-10-05T14:21:20.524Z,22.00
2018-10-05T14:23:48.922Z,22.40
2018-10-05T14:26:17.316Z,22.70
2018-10-05T14:28:45.694Z,22.50
2018-10-05T14:31:14.089Z,22.30
2018-10-05T14:33:42.643Z,22.10
2018-10-05T14:36:11.080Z,21.90
2018-10-05T14:38:39.477Z,21.80
2018-10-05T14:41:07.811Z,21.90
2018-10-05T14:43:36.266Z,21.90
2018-10-05T14:46:04.738Z,21.50
2018-10-05T14:48:34.327Z,21.40
2018-10-05T14:51:02.751Z,22.00
2018-10-05T14:53:31.139Z,21.70
2018-10-05T14:55:59.575Z,21.30
2018-10-05T14:58:27.951Z,21.20
2018-10-05T15:00:56.369Z,21.40
2018-10-05T15:03:24.810Z,21.30
2018-10-05T15:05:53.239Z,21.30
2018-10-05T15:08:21.662Z,21.20
2018-10-05T15:10:50.074Z,21.10
2018-10-05T15:13:18.580Z,21.10
2018-10-05T15:15:46.980Z,21.10
2018-10-05T15:18:15.402Z,21.20
2018-10-05T15:20:43.817Z,21.20
2018-10-05T15:23:12.246Z,21.10
2018-10-05T15:25:40.677Z,21.00
2018-10-05T15:28:09.094Z,21.00
2018-10-05T15:30:37.578Z,20.80
2018-10-05T15:33:06.102Z,20.90
2018-10-05T15:35:34.518Z,21.10
2018-10-05T15:38:02.932Z,20.90
2018-10-05T15:40:31.324Z,20.70
2018-10-05T15:42:59.751Z,20.80
2018-10-05T15:45:28.164Z,20.70
2018-10-05T15:47:56.548Z,20.60
2018-10-05T15:50:24.936Z,20.50
2018-10-05T15:52:53.408Z,20.70
2018-10-05T15:55:21.762Z,20.60
2018-10-05T15:57:50.149Z,20.60
2018-10-05T16:00:18.514Z,20.50
2018-10-05T16:02:46.922Z,20.40
2018-10-05T16:05:15.279Z,20.40
2018-10-05T16:07:43.652Z,20.30
2018-10-05T16:10:12.028Z,20.30
2018-10-05T16:12:40.458Z,20.20
2018-10-05T16:15:08.794Z,20.20
2018-10-05T16:17:37.590Z,20.10
2018-10-05T16:20:06.092Z,20.10
2018-10-05T16:22:34.512Z,19.90
2018-10-05T16:25:02.957Z,19.80
2018-10-05T16:27:31.363Z,19.70
2018-10-05T16:29:59.809Z,19.60
2018-10-05T16:32:28.205Z,19.50
2018-10-05T16:34:56.606Z,19.50
2018-10-05T16:37:25.044Z,19.40
2018-10-05T16:39:53.452Z,19.30
2018-10-05T16:42:21.911Z,19.30
2018-10-05T16:44:50.325Z,19.20
2018-10-05T16:47:18.952Z,19.10
2018-10-05T16:49:47.433Z,19.00
2018-10-05T16:52:15.835Z,19.00
2018-10-05T16:54:44.219Z,18.90
2018-10-05T16:57:12.741Z,18.80
2018-10-05T16:59:41.066Z,18.70
2018-10-05T17:02:09.457Z,18.60
2018-10-05T17:04:37.875Z,18.50
2018-10-05T17:07:06.465Z,18.30
2018-10-05T17:09:34.849Z,18.20
2018-10-05T17:12:03.281Z,18.20
2018-10-05T17:14:32.567Z,18.00
2018-10-05T17:17:01.050Z,18.00
2018-10-05T17:19:29.425Z,18.00
2018-10-05T17:21:57.868Z,17.90
2018-10-05T17:24:26.276Z,17.90
2018-10-05T17:26:54.724Z,17.80
2018-10-05T17:29:23.170Z,17.70
2018-10-05T17:31:51.564Z,17.60
2018-10-05T17:34:19.932Z,17.50
2018-10-05T17:36:48.504Z,17.40
2018-10-05T17:39:16.882Z,17.40
2018-10-05T17:41:45.269Z,17.30
2018-10-05T17:44:13.682Z,17.30
2018-10-05T17:46:42.130Z,17.30
2018-10-05T17:49:10.536Z,17.20
2018-10-05T17:51:38.946Z,17.20
2018-10-05T17:54:07.420Z,17.20
2018-10-05T17:56:35.884Z,17.10
2018-10-05T17:59:04.315Z,17.00
2018-10-05T18:01:32.724Z,17.00
2018-10-05T18:04:01.151Z,16.90
2018-10-05T18:06:29.628Z,16.90
2018-10-05T18:08:58.061Z,16.80
2018-10-05T18:11:26.477Z,16.80
2018-10-05T18:13:54.868Z,16.80
2018-10-05T18:16:23.353Z,16.80
2018-10-05T18:18:51.780Z,16.70
2018-10-05T18:21:20.153Z,16.60
2018-10-05T18:23:48.577Z,16.50
2018-10-05T18:26:16.991Z,16.50
2018-10-05T18:28:45.598Z,16.40
2018-10-05T18:31:13.974Z,16.40
2018-10-05T18:33:42.592Z,16.40
2018-10-05T18:36:11.067Z,16.30
2018-10-05T18:38:39.536Z,16.20
2018-10-05T18:41:07.989Z,16.20
2018-10-05T18:43:36.403Z,16.10
2018-10-05T18:46:04.770Z,16.10
2018-10-05T18:48:33.265Z,16.10
2018-10-05T18:51:01.744Z,16.00
2018-10-05T18:53:30.139Z,15.90
2018-10-05T18:56:07.721Z,15.90
2018-10-05T18:58:36.179Z,15.90
2018-10-05T19:01:04.649Z,15.80
2018-10-05T19:03:33.111Z,15.70
2018-10-05T19:06:01.509Z,15.60
2018-10-05T19:08:30.169Z,15.60
2018-10-05T19:10:58.681Z,15.50
2018-10-05T19:13:27.177Z,15.50
2018-10-05T19:15:55.895Z,15.40
2018-10-05T19:18:24.313Z,15.30
2018-10-05T19:20:52.699Z,15.30
2018-10-05T19:23:21.141Z,15.20
2018-10-05T19:25:49.670Z,15.10
2018-10-05T19:28:18.070Z,15.10
2018-10-05T19:30:46.625Z,15.00
2018-10-05T19:33:15.142Z,15.00
2018-10-05T19:35:43.549Z,15.00
2018-10-05T19:38:12.262Z,14.90
2018-10-05T19:40:40.736Z,14.90
2018-10-05T19:43:09.135Z,14.80
2018-10-05T19:45:37.515Z,14.80
2018-10-05T19:48:06.030Z,14.70
2018-10-05T19:50:34.552Z,14.70
2018-10-05T19:53:02.998Z,14.70
2018-10-05T19:55:31.375Z,14.70
2018-10-05T19:57:59.896Z,14.60
2018-10-05T20:00:28.316Z,14.70
2018-10-05T20:02:56.752Z,14.70
2018-10-05T20:05:25.642Z,14.70
2018-10-05T20:07:54.246Z,14.60
2018-10-05T20:10:22.764Z,14.60
2018-10-05T20:12:51.203Z,14.60
2018-10-05T20:15:19.614Z,14.70
2018-10-05T20:17:48.173Z,14.70
2018-10-05T20:20:16.480Z,14.70
2018-10-05T20:22:44.835Z,14.90
2018-10-05T20:25:13.323Z,14.80
2018-10-05T20:27:41.779Z,14.80
2018-10-05T20:30:10.533Z,14.80
2018-10-05T20:32:39.022Z,14.70
2018-10-05T20:35:07.441Z,14.80
2018-10-05T20:37:36.393Z,14.60
2018-10-05T20:40:04.910Z,14.60
2018-10-05T20:42:33.385Z,14.60
2018-10-05T20:45:01.796Z,14.60
2018-10-05T20:47:30.228Z,14.70
2018-10-05T20:49:58.887Z,14.70
2018-10-05T20:52:27.312Z,14.70
2018-10-05T20:54:55.773Z,14.60
2018-10-05T20:57:24.169Z,14.60
2018-10-05T20:59:52.536Z,14.50
2018-10-05T21:02:20.911Z,14.40
2018-10-05T21:04:49.317Z,14.40
2018-10-05T21:07:17.682Z,14.30
2018-10-05T21:09:46.124Z,14.20
2018-10-05T21:12:14.479Z,14.10
2018-10-05T21:14:42.972Z,14.30
2018-10-05T21:17:11.356Z,14.10
2018-10-05T21:19:39.740Z,14.20
2018-10-05T21:22:08.194Z,14.10
2018-10-05T21:24:36.646Z,14.10
2018-10-05T21:27:05.080Z,14.00
2018-10-05T21:29:33.464Z,13.80
2018-10-05T21:32:01.892Z,13.70
2018-10-05T21:34:30.316Z,13.70
2018-10-05T21:36:58.770Z,13.60
2018-10-05T21:39:27.221Z,13.50
2018-10-05T21:41:55.646Z,13.50
2018-10-05T21:44:24.093Z,13.60
2018-10-05T21:46:52.473Z,13.50
2018-10-05T21:49:20.871Z,13.50
2018-10-05T21:51:49.293Z,13.50
2018-10-05T21:54:17.706Z,13.50
2018-10-05T21:56:46.157Z,13.40
2018-10-05T21:59:14.537Z,13.40
2018-10-05T22:01:42.970Z,13.30
2018-10-05T22:04:11.553Z,13.20
2018-10-05T22:06:39.975Z,13.20
2018-10-05T22:09:09.614Z,13.10
2018-10-05T22:11:38.021Z,13.10
2018-10-05T22:14:06.479Z,13.00
2018-10-05T22:16:34.865Z,13.00
2018-10-05T22:19:03.254Z,13.00
2018-10-05T22:21:31.628Z,13.00
2018-10-05T22:24:00.000Z,12.90
2018-10-05T22:26:28.487Z,13.00
2018-10-05T22:28:56.841Z,13.10
2018-10-05T22:31:25.245Z,13.10
2018-10-05T22:33:53.610Z,13.00
2018-10-05T22:36:22.001Z,13.00
2018-10-05T22:38:50.366Z,13.00
2018-10-05T22:41:18.758Z,12.90
2018-10-05T22:43:47.518Z,12.80
2018-10-05T22:46:15.934Z,12.70
2018-10-05T22:48:44.386Z,12.50
2018-10-05T22:51:12.809Z,12.50
2018-10-05T22:53:41.231Z,12.60
2018-10-05T22:56:09.599Z,12.40
2018-10-05T22:58:37.955Z,12.40
2018-10-05T23:01:06.421Z,12.40
2018-10-05T23:03:35.097Z,12.40
2018-10-05T23:06:03.563Z,12.30
2018-10-05T23:08:32.048Z,12.40
2018-10-05T23:11:00.475Z,12.40
2018-10-05T23:13:28.851Z,12.50
2018-10-05T23:15:57.235Z,12.40
2018-10-05T23:18:25.745Z,12.50
2018-10-05T23:20:54.139Z,12.40
2018-10-05T23:23:22.584Z,12.50
2018-10-05T23:25:51.039Z,12.40
2018-10-05T23:28:19.480Z,12.20
2018-10-05T23:30:47.855Z,12.10
2018-10-05T23:33:16.262Z,12.10
2018-10-05T23:35:44.627Z,12.00
2018-10-05T23:38:13.015Z,12.00
2018-10-05T23:40:41.512Z,11.90
2018-10-05T23:43:09.914Z,12.00
2018-10-05T23:45:38.348Z,12.00
2018-10-05T23:48:06.791Z,12.00
2018-10-05T23:50:35.175Z,12.10
2018-10-05T23:53:03.567Z,12.00
2018-10-05T23:55:31.942Z,12.00
2018-10-05T23:58:00.355Z,11.90
